Nearby METAR Reports

 

KGEU - Glendale, Arizona, USA
Distance from station: S 3mi, 4km
Updated: Tue, 18-Sep-2018 6:56pm MST
Partly cloudy
Partly cloudy
 Wind from SSW
Wind: SSW 10 mph , 17 km/h
Temperature: 100°F , 38°C
Dew Point: 55°F , 13°C
Humidity: 22%
Barometer: 29.70 inHg , 1005.8 hPa
Clouds: Partly cloudy
Visibility: 10 miles , 16 km
Cloud details: Few Clouds 10000 ft
Partly cloudy 18000 ft
2018/09/19 01:56 KGEU 190156Z 20009KT 10SM FEW100 SCT180 38/13 A2970
KLUF - Luke Afb/Glendal, Arizona, USA
Distance from station: SW 5mi, 8km
Updated: Tue, 18-Sep-2018 12:56pm MST
NOT Current
Clear
Clear
 Wind from SSW
Wind: SSW 12 mph , 19 km/h
Temperature: 100°F , 38°C
Dew Point: 59°F , 15°C
Humidity: 25%
Barometer: 29.78 inHg , 1008.5 hPa
Clouds: Clear
Visibility: 10 miles , 16 km
2018/09/18 19:56 KLUF 181956Z AUTO 20010KT 10SM CLR 38/15 A2978 RMK AO2 SLP069 T03800145 $
 
KGYR - Goodyear Municip, Arizona, USA
Distance from station: SSW 11mi, 18km
Updated: Tue, 18-Sep-2018 6:47pm MST
Mostly cloudy
Mostly cloudy
 Wind from WSW
Wind: WSW 9 mph , 15 km/h
Temperature: 99°F , 37°C
Dew Point: 61°F , 16°C
Humidity: 29%
Barometer: 29.69 inHg , 1005.4 hPa
Clouds: Mostly cloudy
Visibility: 10 miles , 16 km
Cloud details: Partly cloudy 15000 ft
Partly cloudy 20000 ft
Mostly cloudy 25000 ft
2018/09/19 01:47 KGYR 190147Z 24008KT 10SM SCT150 SCT200 BKN250 37/16 A2969
KDVT - Phoenix/Deer Vly, Arizona, USA
Distance from station: ENE 16mi, 26km
Updated: Tue, 18-Sep-2018 6:53pm MST
Clear
Clear
 Wind from SW
Wind: SW 12 mph , 19 km/h
Temperature: 97°F , 36°C
Dew Point: 55°F , 13°C
Humidity: 25%
Barometer: 29.71 inHg , 1006.1 hPa
Clouds: Clear
Visibility: 10 miles , 16 km
2018/09/19 01:53 KDVT 190153Z 23010KT 10SM CLR 36/13 A2971 RMK AO2 SLP033 T03610128
 
KPHX - Phoenix/Sky Hrbr, Arizona, USA
Distance from station: ESE 19mi, 31km
Updated: Tue, 18-Sep-2018 6:51pm MST
Mostly cloudy
Mostly cloudy
 Wind from W
Wind: W 13 mph , 20 km/h
Temperature: 100°F , 38°C
Dew Point: 57°F , 14°C
Humidity: 24%
Barometer: 29.68 inHg , 1005.1 hPa
Clouds: Mostly cloudy
Visibility: 10 miles , 16 km
Cloud details: Few Clouds 12000 ft
Partly cloudy 18000 ft
Mostly cloudy 25000 ft
2018/09/19 01:51 KPHX 190151Z 27011KT 10SM FEW120 SCT180 BKN250 38/14 A2968 RMK AO2 SLP028 FU W T03780139
KSDL - Scottsdale, Arizona, USA
Distance from station: E 23mi, 37km
Updated: Tue, 18-Sep-2018 6:53pm MST
Clear
Clear
 Wind from WSW
Wind: WSW 8 mph , 13 km/h
Temperature: 97°F , 36°C
Dew Point: 55°F , 13°C
Humidity: 25%
Barometer: 29.73 inHg , 1006.8 hPa
Clouds: Clear
Visibility: 10 miles , 16 km
2018/09/19 01:53 KSDL 190153Z 25007KT 10SM CLR 36/13 A2973 RMK AO2 SLP037 T03610128
 
KBXK - Buckeye, Arizona, USA
Distance from station: WSW 24mi, 39km
Updated: Tue, 18-Sep-2018 7:15pm MST
Partly cloudy
Partly cloudy
 Wind from WSW
Wind: WSW 6 mph , 9 km/h
Temperature: 93°F , 34°C
Dew Point: 57°F , 14°C
Humidity: 30%
Barometer: 29.70 inHg , 1005.8 hPa
Clouds: Partly cloudy
Visibility: 10 miles , 16 km
Cloud details: Partly cloudy 12000 ft
2018/09/19 02:15 KBXK 190215Z AUTO 24005KT 10SM SCT120 34/14 A2970 RMK AO1
KFFZ - Mesa/Falcon Fld, Arizona, USA
Distance from station: E 35mi, 56km
Updated: Tue, 18-Sep-2018 6:47pm MST
Few Clouds
Few Clouds
 Wind from W
Wind: W 7 mph , 11 km/h
Temperature: 97°F , 36°C
Dew Point: 55°F , 13°C
Humidity: 25%
Barometer: 29.72 inHg , 1006.4 hPa
Clouds: Few Clouds
Visibility: 40 miles , 64 km
Cloud details: Few Clouds 18000 ft
2018/09/19 01:47 KFFZ 190147Z 27006KT 40SM FEW180 36/13 A2972
 
KIWA - Chandler/Mesa, Arizona, USA
Distance from station: ESE 42mi, 68km
Updated: Tue, 18-Sep-2018 6:52pm MST
Mostly cloudy
Mostly cloudy
 Wind from WNW
Wind: WNW 13 mph , 20 km/h
Temperature: 97°F , 36°C
Dew Point: 55°F , 13°C
Humidity: 25%
Barometer: 29.72 inHg , 1006.4 hPa
Clouds: Mostly cloudy
Visibility: 20 miles , 32 km
Cloud details: Mostly cloudy 15000 ft
2018/09/19 01:52 KIWA 190152Z 29011KT 20SM BKN150 36/13 A2972
KCGZ - Casa Granda, Arizona, USA
Distance from station: SE 53mi, 85km
Updated: Tue, 18-Sep-2018 6:56pm MST
Clear
Clear
 Wind from WNW
Wind: WNW 9 mph , 15 km/h
Temperature: 97°F , 36°C
Dew Point: 57°F , 14°C
Humidity: 27%
Barometer: 29.73 inHg , 1006.8 hPa
Clouds: Clear
Visibility: 10 miles , 16 km
2018/09/19 01:56 KCGZ 190156Z AUTO 29008KT 10SM CLR 36/14 A2973 RMK AO2 SLP051 T03560139 $
 
KGXF - Gila Bend (aaf), Arizona, USA
Distance from station: SSW 54mi, 87km
Updated: Tue, 18-Sep-2018 12:58pm MST
NOT Current
Clear
Clear
 Wind from WSW
Wind: WSW 5 mph , 7 km/h
Temperature: 100°F , 38°C
Dew Point: 57°F , 14°C
Humidity: 24%
Barometer: 29.77 inHg , 1008.1 hPa
Clouds: Clear
Visibility: 10 miles , 16 km
2018/09/18 19:58 KGXF 181958Z AUTO 25004KT 10SM CLR 38/14 A2977 RMK AO2 SLP066 T03770135
KPAN - Payson, Arizona, USA
Distance from station: NE 73mi, 117km
Updated: Tue, 18-Sep-2018 7:15pm MST
Clear
Clear
 Wind from SW
Wind: SW 6 mph , 9 km/h
Temperature: 81°F , 27°C
Dew Point: 45°F , 7°C
Humidity: 28%
Barometer: 30.02 inHg , 1016.6 hPa
Clouds: Clear
Visibility: 10 miles , 16 km
2018/09/19 02:15 KPAN 190215Z AUTO 23005KT 10SM CLR 27/07 A3002 RMK AO2
 
KPRC - Prescott, Arizona, USA
Distance from station: N 75mi, 121km
Updated: Tue, 18-Sep-2018 6:53pm MST
Clear
Clear
 Wind from SW
Wind: SW 6 mph , 9 km/h
Temperature: 77°F , 25°C
Dew Point: 45°F , 7°C
Humidity: 32%
Barometer: 30.01 inHg , 1016.3 hPa
Clouds: Clear
Visibility: 10 miles , 16 km
2018/09/19 01:53 KPRC 190153Z 23005KT 10SM CLR 25/07 A3001 RMK AO2 SLP083 T02500067
KSEZ - Sedona, Arizona, USA
Distance from station: NNE 93mi, 150km
Updated: Tue, 18-Sep-2018 7:15pm MST
Clear
Clear
 Wind from W
Wind: W 7 mph , 11 km/h
Temperature: 82°F , 28°C
Dew Point: 41°F , 5°C
Humidity: 23%
Barometer: 29.98 inHg , 1015.2 hPa
Clouds: Clear
Visibility: 10 miles , 16 km
2018/09/19 02:15 KSEZ 190215Z AUTO 26006KT 10SM CLR 28/05 A2998 RMK AO2
 
KFLG - Flagstaff, Arizona, USA
Distance from station: NNE 114mi, 184km
Updated: Tue, 18-Sep-2018 6:57pm MST
Clear
Clear
 Wind from W
Wind: W 5 mph , 7 km/h
Temperature: 70°F , 21°C
Dew Point: 41°F , 5°C
Humidity: 35%
Barometer: 30.15 inHg , 1021 hPa
Clouds: Clear
Visibility: 10 miles , 16 km
2018/09/19 01:57 KFLG 190157Z 26004KT 10SM CLR 21/05 A3015 RMK AO2 SLP115 T02110050
KRYN - Tucson/Ryan Fld, Arizona, USA
Distance from station: SE 118mi, 190km
Updated: Tue, 18-Sep-2018 6:45pm MST
Clear
Clear
 Wind from NNW
Wind: NNW 8 mph , 13 km/h
Temperature: 93°F , 34°C
Dew Point: 52°F , 11°C
Humidity: 24%
Barometer: 29.82 inHg , 1009.8 hPa
Clouds: Clear
Visibility: 10 miles , 16 km
2018/09/19 01:45 KRYN 190145Z 33007KT 10SM CLR 34/11 A2982
 
KTUS - Tucson, Arizona, USA
Distance from station: SE 127mi, 204km
Updated: Tue, 18-Sep-2018 6:53pm MST
Clear
Clear
 Wind from NNW
Wind: NNW 9 mph , 15 km/h
Temperature: 93°F , 34°C
Dew Point: 52°F , 11°C
Humidity: 24%
Barometer: 29.84 inHg , 1010.5 hPa
Clouds: Clear
Visibility: 10 miles , 16 km
2018/09/19 01:53 KTUS 190153Z 33008KT 10SM CLR 34/11 A2984 RMK AO2 SLP051 T03440106
KDMA - Davis/Tucson, Arizona, USA
Distance from station: SE 128mi, 206km
Updated: Tue, 18-Sep-2018 12:56pm MST
NOT Current
Clear
Clear
 Wind from WNW
Wind: WNW 7 mph , 11 km/h
Temperature: 97°F , 36°C
Dew Point: 55°F , 13°C
Humidity: 25%
Barometer: 29.90 inHg , 1012.5 hPa
Clouds: Clear
Visibility: 10 miles , 16 km
2018/09/18 19:56 KDMA 181956Z AUTO 30006KT 10SM CLR 36/13 A2990 RMK AO2 SLP074 T03600128 $
 
KINW - Winslow, Arizona, USA
Distance from station: NE 136mi, 219km
Updated: Tue, 18-Sep-2018 6:56pm MST
Clear
Clear
 Wind from WSW
Wind: WSW 10 mph , 17 km/h
Temperature: 84°F , 29°C
Dew Point: 43°F , 6°C
Humidity: 23%
Barometer: 29.97 inHg , 1014.9 hPa
Clouds: Clear
Visibility: 10 miles , 16 km
2018/09/19 01:56 KINW 190156Z AUTO 25009KT 10SM CLR 29/06 A2997 RMK AO2 SLP074 T02940061
KHII - Lake Havasu City, Arizona, USA
Distance from station: WNW 136mi, 220km
Updated: Tue, 18-Sep-2018 6:55pm MST
Clear
Clear
 Wind from S
Wind: S 8 mph , 13 km/h
Temperature: 99°F , 37°C
Dew Point: 45°F , 7°C
Humidity: 16%
Barometer: 29.66 inHg , 1004.4 hPa
Clouds: Clear
Visibility: 10 miles , 16 km
2018/09/19 01:55 KHII 190155Z AUTO 19007KT 10SM CLR 37/07 A2966 RMK AO2